Airfield :
LOGIN :

Register | Disclaimer

   EN    FR    IT 

 










Legend :    VFR   Marginal VFR   IFR   Intensive IFR   Very Intensive IFR
Visi :
Ceiling :
>= 8 km
>= 3000ft
5 to 8 km
1000 to 3000 ft
1500m to 5 km
500 to 1000 ft
800 to 1500m
200 to 500 ft
< 800m
< 200 ft
Symbols :   Thunderstorms  Fog  Heavy snow  Heavy precipitations  Wind > 20 kt
SIGMETs :     Misc.  Thunderstorms  Icing  Turbulence  Mountain Waves  Volcanic Ashes






- Airport Elevation : 37 ft


EHVL - Vlieland Heliport

CURRENT METAR :
  • 270825Z AUTO 19017KT 9999 FEW078 SCT087 OVC093 04/02 Q0998 BLU

EXPIRED METARs :
  • 270755Z AUTO 18013KT 9999 BKN088 OVC094 04/01 Q0998 BLU
  • 270737Z AUTO 19012KT 9999 SCT025 BKN033 BKN038 04/01 Q0998 BLU
  • 270727Z AUTO 18013KT 9999 OVC025 04/01 Q0998 BLU
  • 270725Z AUTO 18013KT 9999 OVC025 04/01 Q0998 BLU
  • 270655Z AUTO 19008KT 9999 OVC096 04/01 Q0999 BLU
  • 270625Z AUTO 20009KT 9999 FEW031 OVC100 04/00 Q0999 BLU
  • 270555Z AUTO 22012KT 9999 OVC110 04/M00 Q0999 BLU
  • 270525Z AUTO 24012KT 9999 FEW027 OVC120 05/M00 Q1000 BLU

Expired Forecast.



MET'MAP, your aeronautical weather chart ! - Copyright ORBIFLY December 2007 - Disclaimer

ORBIFLY MET'MAP TEAM :

Programming & Development : Alexandra Zaïnal
Concept & original design : Baudouin d'Aumeries
Assistance for programming : Marc-Olivier Méhu
Technical & hardware support : Manuel Goepfert

Contact : metmap@orbifly.com




SOURCES & CREDITS :

   NOAA